createdAt,value
2022-07-30T00:00:27.547Z,99.90
2022-07-30T00:02:55.553Z,99.90
2022-07-30T00:05:23.911Z,99.90
2022-07-30T00:07:51.933Z,99.90
2022-07-30T00:10:20.726Z,99.90
2022-07-30T00:12:48.755Z,99.90
2022-07-30T00:15:18.099Z,99.90
2022-07-30T00:17:49.290Z,99.90
2022-07-30T00:20:17.800Z,99.90
2022-07-30T00:22:46.754Z,99.90
2022-07-30T00:25:14.806Z,99.90
2022-07-30T00:27:44.370Z,99.90
2022-07-30T00:30:12.959Z,99.90
2022-07-30T00:32:42.349Z,99.90
2022-07-30T00:35:10.942Z,99.90
2022-07-30T00:37:38.934Z,99.90
2022-07-30T00:40:08.029Z,99.90
2022-07-30T00:42:43.045Z,99.90
2022-07-30T00:45:12.108Z,99.90
2022-07-30T00:47:40.107Z,99.90
2022-07-30T00:50:10.931Z,99.90
2022-07-30T00:52:39.445Z,99.90
2022-07-30T00:55:08.613Z,99.90
2022-07-30T00:57:36.640Z,99.90
2022-07-30T01:00:05.562Z,99.90
2022-07-30T01:02:33.690Z,99.90
2022-07-30T01:05:01.686Z,99.90
2022-07-30T01:07:31.071Z,99.90
2022-07-30T01:09:59.100Z,99.90
2022-07-30T01:12:28.035Z,99.90
2022-07-30T01:14:56.930Z,99.90
2022-07-30T01:17:25.134Z,99.90
2022-07-30T01:19:56.057Z,99.90
2022-07-30T01:22:30.620Z,99.90
2022-07-30T01:25:05.506Z,99.90
2022-07-30T01:27:37.742Z,99.90
2022-07-30T01:30:06.578Z,99.90
2022-07-30T01:32:39.687Z,99.90
2022-07-30T01:35:08.729Z,99.90
2022-07-30T01:37:37.006Z,99.90
2022-07-30T01:40:05.593Z,99.90
2022-07-30T01:42:36.040Z,99.90
2022-07-30T01:45:05.035Z,99.90
2022-07-30T01:47:34.373Z,99.90
2022-07-30T01:50:03.065Z,99.90
2022-07-30T01:52:33.461Z,99.90
2022-07-30T01:55:01.835Z,99.90
2022-07-30T01:57:30.873Z,99.90
2022-07-30T02:00:02.445Z,99.90
2022-07-30T02:02:30.499Z,99.90
2022-07-30T02:04:58.729Z,99.90
2022-07-30T02:07:31.673Z,99.90
2022-07-30T02:10:02.092Z,99.90
2022-07-30T02:12:32.223Z,99.90
2022-07-30T02:15:13.492Z,99.90
2022-07-30T02:17:45.158Z,99.90
2022-07-30T02:20:14.710Z,99.90
2022-07-30T02:22:45.072Z,99.90
2022-07-30T02:25:17.038Z,99.90
2022-07-30T02:27:46.613Z,99.90
2022-07-30T02:30:16.837Z,99.90
2022-07-30T02:32:46.036Z,99.90
2022-07-30T02:35:16.954Z,99.90
2022-07-30T02:37:46.413Z,99.90
2022-07-30T02:40:16.743Z,99.90
2022-07-30T02:42:46.542Z,99.90
2022-07-30T02:45:17.827Z,99.90
2022-07-30T02:47:47.689Z,99.90
2022-07-30T02:50:16.669Z,99.90
2022-07-30T02:52:45.970Z,99.90
2022-07-30T02:55:14.338Z,99.90
2022-07-30T02:57:43.995Z,99.90
2022-07-30T03:00:12.746Z,99.90
2022-07-30T03:02:43.615Z,99.90
2022-07-30T03:05:14.915Z,99.90
2022-07-30T03:07:43.338Z,99.90
2022-07-30T03:10:12.417Z,99.90
2022-07-30T03:12:41.949Z,99.90
2022-07-30T03:15:10.866Z,99.90
2022-07-30T03:17:40.251Z,99.90
2022-07-30T03:20:09.837Z,99.90
2022-07-30T03:22:41.643Z,99.90
2022-07-30T03:25:10.598Z,99.90
2022-07-30T03:27:39.467Z,99.90
2022-07-30T03:30:08.292Z,99.90
2022-07-30T03:32:36.682Z,99.90
2022-07-30T03:35:06.617Z,99.90
2022-07-30T03:37:37.899Z,99.90
2022-07-30T03:40:08.433Z,99.90
2022-07-30T03:42:36.865Z,99.90
2022-07-30T03:45:05.856Z,99.90
2022-07-30T03:47:34.569Z,99.90
2022-07-30T03:50:02.706Z,99.90
2022-07-30T03:52:31.130Z,99.90
2022-07-30T03:54:59.317Z,99.90
2022-07-30T03:57:28.714Z,99.90
2022-07-30T03:59:56.814Z,99.90
2022-07-30T04:02:24.810Z,99.90
2022-07-30T04:04:52.991Z,99.90
2022-07-30T04:07:20.982Z,99.90
2022-07-30T04:09:49.112Z,99.90
2022-07-30T04:12:17.078Z,99.90
2022-07-30T04:14:46.472Z,99.90
2022-07-30T04:17:17.750Z,99.90
2022-07-30T04:19:48.164Z,99.90
2022-07-30T04:22:18.118Z,99.90
2022-07-30T04:24:46.190Z,99.90
2022-07-30T04:27:14.879Z,99.90
2022-07-30T04:29:42.974Z,99.90
2022-07-30T04:32:12.741Z,99.90
2022-07-30T04:34:46.906Z,99.90
2022-07-30T04:37:16.360Z,99.90
2022-07-30T04:39:44.686Z,99.90
2022-07-30T04:42:12.884Z,99.90
2022-07-30T04:44:40.888Z,99.90
2022-07-30T04:47:08.894Z,99.90
2022-07-30T04:49:38.728Z,99.90
2022-07-30T04:52:07.698Z,99.90
2022-07-30T04:54:39.174Z,99.90
2022-07-30T04:57:08.272Z,99.90
2022-07-30T04:59:37.325Z,99.90
2022-07-30T05:02:05.855Z,99.90
2022-07-30T05:04:35.452Z,99.90
2022-07-30T05:07:05.351Z,99.90
2022-07-30T05:09:33.487Z,99.90
2022-07-30T05:12:01.520Z,99.90
2022-07-30T05:14:29.835Z,99.90
2022-07-30T05:16:58.021Z,99.90
2022-07-30T05:19:26.139Z,99.90
2022-07-30T05:21:54.410Z,99.90
2022-07-30T05:24:23.770Z,99.90
2022-07-30T05:26:51.827Z,99.90
2022-07-30T05:29:20.369Z,99.90
2022-07-30T05:31:48.856Z,99.90
2022-07-30T05:34:17.219Z,99.90
2022-07-30T05:36:45.444Z,99.90
2022-07-30T05:39:13.475Z,99.90
2022-07-30T05:41:42.866Z,99.90
2022-07-30T05:44:10.910Z,99.90
2022-07-30T05:46:38.979Z,99.90
2022-07-30T05:49:07.501Z,99.90
2022-07-30T05:51:35.609Z,99.90
2022-07-30T05:54:03.597Z,99.90
2022-07-30T05:56:31.612Z,99.90
2022-07-30T05:59:00.965Z,99.90
2022-07-30T06:01:29.212Z,99.90
2022-07-30T06:03:57.277Z,99.90
2022-07-30T06:06:25.322Z,99.90
2022-07-30T06:08:53.718Z,99.90
2022-07-30T06:11:21.660Z,99.90
2022-07-30T06:13:49.653Z,99.90
2022-07-30T06:16:19.117Z,99.90
2022-07-30T06:18:47.173Z,99.90
2022-07-30T06:21:15.178Z,99.90
2022-07-30T06:23:43.229Z,99.90
2022-07-30T06:26:11.202Z,99.90
2022-07-30T06:28:39.687Z,99.90
2022-07-30T06:31:08.024Z,99.90
2022-07-30T06:33:37.422Z,99.90
2022-07-30T06:36:05.491Z,99.90
2022-07-30T06:38:33.494Z,99.90
2022-07-30T06:41:02.879Z,99.90
2022-07-30T06:43:32.630Z,99.90
2022-07-30T06:46:00.912Z,99.90
2022-07-30T06:48:31.021Z,99.90
2022-07-30T06:51:00.469Z,99.90
2022-07-30T06:53:28.670Z,99.90
2022-07-30T06:55:58.491Z,99.90
2022-07-30T06:58:28.744Z,99.90
2022-07-30T07:00:56.781Z,99.90
2022-07-30T07:03:39.555Z,99.90
2022-07-30T07:06:10.156Z,99.90
2022-07-30T07:08:38.647Z,99.90
2022-07-30T07:11:06.700Z,99.90
2022-07-30T07:13:34.649Z,99.90
2022-07-30T07:16:02.696Z,99.90
2022-07-30T07:18:30.697Z,99.90
2022-07-30T07:20:58.720Z,99.90
2022-07-30T07:23:41.835Z,99.90
2022-07-30T07:26:11.043Z,99.90
2022-07-30T07:28:40.148Z,99.90
2022-07-30T07:31:08.325Z,99.90
2022-07-30T07:33:36.407Z,99.90
2022-07-30T07:36:04.518Z,99.90
2022-07-30T07:38:34.451Z,99.90
2022-07-30T07:41:02.440Z,99.90
2022-07-30T07:43:30.458Z,99.90
2022-07-30T07:45:58.442Z,99.90
2022-07-30T07:48:26.491Z,99.90
2022-07-30T07:50:59.653Z,99.90
2022-07-30T07:53:28.382Z,99.90
2022-07-30T07:55:57.877Z,99.90
2022-07-30T07:58:26.414Z,99.90
2022-07-30T08:00:55.270Z,99.90
2022-07-30T08:03:23.317Z,99.90
2022-07-30T08:06:00.794Z,99.90
2022-07-30T08:08:36.651Z,99.90
2022-07-30T08:11:07.469Z,99.90
2022-07-30T08:13:48.538Z,99.90
2022-07-30T08:16:20.830Z,99.90
2022-07-30T08:18:48.958Z,99.90
2022-07-30T08:21:16.949Z,99.90
2022-07-30T08:23:44.978Z,99.90
2022-07-30T08:26:14.376Z,99.90
2022-07-30T08:28:43.239Z,96.40
2022-07-30T08:31:11.300Z,95.90
2022-07-30T08:33:39.264Z,95.00
2022-07-30T08:36:09.518Z,92.80
2022-07-30T08:38:38.593Z,92.30
2022-07-30T08:41:07.641Z,93.00
2022-07-30T08:43:38.024Z,91.40
2022-07-30T08:46:06.968Z,88.30
2022-07-30T08:48:35.257Z,88.70
2022-07-30T08:51:03.470Z,85.00
2022-07-30T08:53:33.219Z,84.30
2022-07-30T08:56:01.829Z,81.20
2022-07-30T08:58:30.626Z,76.50
2022-07-30T09:01:00.136Z,73.60
2022-07-30T09:03:28.209Z,73.40
2022-07-30T09:05:56.179Z,76.90
2022-07-30T09:08:24.214Z,72.70
2022-07-30T09:10:53.518Z,74.10
2022-07-30T09:13:25.682Z,75.40
2022-07-30T09:15:54.299Z,76.10
2022-07-30T09:18:30.975Z,73.80
2022-07-30T09:20:59.878Z,76.20
2022-07-30T09:23:27.938Z,76.50
2022-07-30T09:25:57.115Z,70.40
2022-07-30T09:28:31.693Z,72.00
2022-07-30T09:30:59.967Z,75.10
2022-07-30T09:33:36.824Z,76.20
2022-07-30T09:36:05.904Z,76.00
2022-07-30T09:38:43.659Z,71.50
2022-07-30T09:41:23.071Z,70.60
2022-07-30T09:44:00.107Z,69.70
2022-07-30T09:46:41.767Z,72.10
2022-07-30T09:49:17.095Z,75.90
2022-07-30T09:51:55.833Z,76.00
2022-07-30T09:54:25.776Z,71.80
2022-07-30T09:57:25.626Z,72.10
2022-07-30T09:59:55.810Z,72.30
2022-07-30T10:02:32.392Z,67.80
2022-07-30T10:05:14.310Z,69.50
2022-07-30T10:07:53.329Z,71.10
2022-07-30T10:10:25.694Z,70.70
2022-07-30T10:12:58.172Z,72.00
2022-07-30T10:15:29.073Z,72.10
2022-07-30T10:17:57.778Z,70.10
2022-07-30T10:20:27.446Z,73.70
2022-07-30T10:22:55.947Z,71.60
2022-07-30T10:25:27.780Z,64.60
2022-07-30T10:27:57.139Z,65.30
2022-07-30T10:30:27.663Z,62.50
2022-07-30T10:32:57.779Z,58.90
2022-07-30T10:35:34.980Z,60.30
2022-07-30T10:38:09.409Z,56.80
2022-07-30T10:40:43.317Z,56.20
2022-07-30T10:43:24.398Z,59.20
2022-07-30T10:46:04.360Z,56.90
2022-07-30T10:48:33.691Z,50.70
2022-07-30T10:51:03.220Z,50.90
2022-07-30T10:53:36.478Z,48.90
2022-07-30T10:56:14.545Z,51.60
2022-07-30T10:59:03.107Z,49.10
2022-07-30T11:01:53.206Z,50.90
2022-07-30T11:04:25.843Z,53.40
2022-07-30T11:07:17.495Z,54.30
2022-07-30T11:09:49.711Z,53.30
2022-07-30T11:12:52.723Z,52.90
2022-07-30T11:15:22.378Z,52.10
2022-07-30T11:18:04.347Z,56.20
2022-07-30T11:20:32.963Z,53.30
2022-07-30T11:23:35.440Z,53.50
2022-07-30T11:26:04.016Z,51.20
2022-07-30T11:28:35.482Z,51.60
2022-07-30T11:31:10.078Z,51.80
2022-07-30T11:33:39.170Z,53.70
2022-07-30T11:36:11.816Z,51.80
2022-07-30T11:38:54.939Z,55.70
2022-07-30T11:41:23.351Z,56.80
2022-07-30T11:44:06.133Z,54.50
2022-07-30T11:46:34.218Z,53.10
2022-07-30T11:49:08.634Z,51.00
2022-07-30T11:51:41.306Z,52.80
2022-07-30T11:54:12.194Z,52.40
2022-07-30T11:56:49.229Z,55.40
2022-07-30T11:59:17.228Z,52.70
2022-07-30T12:01:45.556Z,51.30
2022-07-30T12:04:13.627Z,51.70
2022-07-30T12:06:45.114Z,51.60
2022-07-30T12:09:22.154Z,55.50
2022-07-30T12:11:50.138Z,55.50
2022-07-30T12:14:18.202Z,54.00
2022-07-30T12:16:51.135Z,55.60
2022-07-30T12:19:19.684Z,56.60
2022-07-30T12:21:52.768Z,58.50
2022-07-30T12:24:27.326Z,59.70
2022-07-30T12:27:05.305Z,57.50
2022-07-30T12:29:34.225Z,57.30
2022-07-30T12:32:03.285Z,56.30
2022-07-30T12:34:31.253Z,54.20
2022-07-30T12:37:08.132Z,54.50
2022-07-30T12:39:37.544Z,55.00
2022-07-30T12:42:05.962Z,57.80
2022-07-30T12:44:37.381Z,54.40
2022-07-30T12:47:06.653Z,55.80
2022-07-30T12:49:39.317Z,52.70
2022-07-30T12:52:28.777Z,54.60
2022-07-30T12:55:08.987Z,54.30
2022-07-30T12:58:02.883Z,56.20
2022-07-30T13:00:36.089Z,55.10
2022-07-30T13:03:20.380Z,54.00
2022-07-30T13:05:49.817Z,54.00
2022-07-30T13:08:18.211Z,54.40
2022-07-30T13:10:57.102Z,56.30
2022-07-30T13:13:27.570Z,56.90
2022-07-30T13:15:59.989Z,57.80
2022-07-30T13:18:28.430Z,58.30
2022-07-30T13:20:56.440Z,60.20
2022-07-30T13:23:24.517Z,58.70
2022-07-30T13:25:52.729Z,58.30
2022-07-30T13:28:22.121Z,59.80
2022-07-30T13:30:50.296Z,60.10
2022-07-30T13:33:18.944Z,62.50
2022-07-30T13:35:47.090Z,60.80
2022-07-30T13:38:15.701Z,63.60
2022-07-30T13:40:43.736Z,65.80
2022-07-30T13:43:11.807Z,68.20
2022-07-30T13:45:41.159Z,71.80
2022-07-30T13:48:09.184Z,74.80
2022-07-30T13:50:37.249Z,80.30
2022-07-30T13:53:06.618Z,79.70
2022-07-30T13:55:34.663Z,80.20
2022-07-30T13:58:02.746Z,76.60
2022-07-30T14:00:32.593Z,77.10
2022-07-30T14:03:03.287Z,78.50
2022-07-30T14:05:31.457Z,78.90
2022-07-30T14:07:59.460Z,79.60
2022-07-30T14:10:27.541Z,78.90
2022-07-30T14:12:57.194Z,77.90
2022-07-30T14:15:26.027Z,77.30
2022-07-30T14:17:55.988Z,76.60
2022-07-30T14:20:29.014Z,77.50
2022-07-30T14:22:57.437Z,77.70
2022-07-30T14:25:25.923Z,77.50
2022-07-30T14:27:53.914Z,76.00
2022-07-30T14:30:23.213Z,78.00
2022-07-30T14:32:57.351Z,78.40
2022-07-30T14:35:28.883Z,77.20
2022-07-30T14:37:56.879Z,79.50
2022-07-30T14:40:24.954Z,78.60
2022-07-30T14:42:52.978Z,76.40
2022-07-30T14:45:24.382Z,77.30
2022-07-30T14:47:53.843Z,77.00
2022-07-30T14:50:22.005Z,72.80
2022-07-30T14:52:52.114Z,72.70
2022-07-30T14:55:20.212Z,74.30
2022-07-30T14:57:48.666Z,75.70
2022-07-30T15:00:17.029Z,77.80
2022-07-30T15:02:45.156Z,74.50
2022-07-30T15:05:13.167Z,72.30
2022-07-30T15:07:41.343Z,74.30
2022-07-30T15:10:13.551Z,74.40
2022-07-30T15:12:43.813Z,75.30
2022-07-30T15:15:12.696Z,71.10
2022-07-30T15:17:42.656Z,73.30
2022-07-30T15:20:11.362Z,74.40
2022-07-30T15:22:39.712Z,74.20
2022-07-30T15:25:08.469Z,74.80
2022-07-30T15:27:37.942Z,74.00
2022-07-30T15:30:06.543Z,74.50
2022-07-30T15:32:34.553Z,74.40
2022-07-30T15:35:02.580Z,75.30
2022-07-30T15:37:30.632Z,76.00
2022-07-30T15:39:58.662Z,75.70
2022-07-30T15:42:27.381Z,74.50
2022-07-30T15:45:16.046Z,72.00
2022-07-30T15:47:44.881Z,71.80
2022-07-30T15:50:13.350Z,71.90
2022-07-30T15:52:41.356Z,72.20
2022-07-30T15:55:09.599Z,73.60
2022-07-30T15:57:37.892Z,75.20
2022-07-30T16:00:08.723Z,74.30
2022-07-30T16:02:36.783Z,75.80
2022-07-30T16:05:05.155Z,76.40
2022-07-30T16:07:33.265Z,79.20
2022-07-30T16:10:01.272Z,78.80
2022-07-30T16:12:29.289Z,79.80
2022-07-30T16:14:57.529Z,80.50
2022-07-30T16:17:27.044Z,79.30
2022-07-30T16:19:55.038Z,80.40
2022-07-30T16:22:24.215Z,80.70
2022-07-30T16:24:52.737Z,81.60
2022-07-30T16:27:20.767Z,81.60
2022-07-30T16:29:48.796Z,82.20
2022-07-30T16:32:16.865Z,82.60
2022-07-30T16:34:46.287Z,82.60
2022-07-30T16:37:15.284Z,84.90
2022-07-30T16:39:43.258Z,84.30
2022-07-30T16:42:11.866Z,84.60
2022-07-30T16:44:40.682Z,85.50
2022-07-30T16:47:13.320Z,85.40
2022-07-30T16:49:41.910Z,85.30
2022-07-30T16:52:11.316Z,86.30
2022-07-30T16:54:39.295Z,85.90
2022-07-30T16:57:10.413Z,85.90
2022-07-30T16:59:38.984Z,83.60
2022-07-30T17:02:12.420Z,85.10
2022-07-30T17:04:41.533Z,83.40
2022-07-30T17:07:09.614Z,84.50
2022-07-30T17:09:38.974Z,82.50
2022-07-30T17:12:12.174Z,83.30
2022-07-30T17:14:41.162Z,82.20
2022-07-30T17:17:13.843Z,82.80
2022-07-30T17:19:42.133Z,83.10
2022-07-30T17:22:10.149Z,83.80
2022-07-30T17:24:40.012Z,83.70
2022-07-30T17:27:08.032Z,84.10
2022-07-30T17:29:49.857Z,85.60
2022-07-30T17:32:18.651Z,85.40
2022-07-30T17:34:46.708Z,85.30
2022-07-30T17:37:14.721Z,85.60
2022-07-30T17:40:19.919Z,86.70
2022-07-30T17:42:32.120Z,87.00
2022-07-30T17:45:01.368Z,88.30
2022-07-30T17:47:29.547Z,88.60
2022-07-30T17:49:57.559Z,90.00
2022-07-30T17:52:26.644Z,90.10
2022-07-30T17:54:56.686Z,90.80
2022-07-30T17:57:24.747Z,90.80
2022-07-30T17:59:52.784Z,91.20
2022-07-30T18:02:27.558Z,91.20
2022-07-30T18:04:56.934Z,92.00
2022-07-30T18:07:25.511Z,92.40
2022-07-30T18:09:53.728Z,92.00
2022-07-30T18:12:23.326Z,92.10
2022-07-30T18:14:51.393Z,92.20
2022-07-30T18:17:19.376Z,92.00
2022-07-30T18:19:47.421Z,92.10
2022-07-30T18:22:16.576Z,92.60
2022-07-30T18:24:57.674Z,92.80
2022-07-30T18:27:27.910Z,92.20
2022-07-30T18:29:55.902Z,92.60
2022-07-30T18:32:25.061Z,92.40
2022-07-30T18:34:53.062Z,92.10
2022-07-30T18:37:21.055Z,93.00
2022-07-30T18:39:49.155Z,92.50
2022-07-30T18:42:17.453Z,92.60
2022-07-30T18:47:27.650Z,93.20
2022-07-30T18:49:56.469Z,94.00
2022-07-30T18:52:24.534Z,94.10
2022-07-30T18:54:52.518Z,94.40
2022-07-30T18:57:20.892Z,94.60
2022-07-30T18:59:48.905Z,94.90
2022-07-30T19:02:16.857Z,95.50
2022-07-30T19:04:46.236Z,95.60
2022-07-30T19:07:14.232Z,95.60
2022-07-30T19:09:43.044Z,96.30
2022-07-30T19:12:11.097Z,96.20
2022-07-30T19:14:39.099Z,96.60
2022-07-30T19:17:13.870Z,96.70
2022-07-30T19:19:43.246Z,97.20
2022-07-30T19:22:12.765Z,97.20
2022-07-30T19:24:40.798Z,97.60
2022-07-30T19:27:13.681Z,97.60
2022-07-30T19:29:42.506Z,97.70
2022-07-30T19:32:10.511Z,97.80
2022-07-30T19:34:39.540Z,98.00
2022-07-30T19:37:07.694Z,98.50
2022-07-30T19:39:37.164Z,98.50
2022-07-30T19:42:26.147Z,98.60
2022-07-30T19:44:55.201Z,98.90
2022-07-30T19:47:26.139Z,99.40
2022-07-30T19:49:54.277Z,99.90
2022-07-30T19:52:26.264Z,99.90
2022-07-30T19:54:55.982Z,99.90
2022-07-30T19:57:24.026Z,99.90
2022-07-30T20:00:12.556Z,99.90
2022-07-30T20:02:40.681Z,99.90
2022-07-30T20:05:11.731Z,99.90
2022-07-30T20:07:42.397Z,99.90
2022-07-30T20:10:13.955Z,99.90
2022-07-30T20:12:49.418Z,99.90
2022-07-30T20:15:18.321Z,99.90
2022-07-30T20:17:46.666Z,99.90
2022-07-30T20:20:14.777Z,99.90
2022-07-30T20:22:42.811Z,99.90
2022-07-30T20:25:11.215Z,99.90
2022-07-30T20:27:42.181Z,99.90
2022-07-30T20:30:11.773Z,99.90
2022-07-30T20:32:46.418Z,99.90
2022-07-30T20:35:14.835Z,99.90
2022-07-30T20:37:54.901Z,99.90
2022-07-30T20:40:23.866Z,99.90
2022-07-30T20:42:54.339Z,99.90
2022-07-30T20:45:24.848Z,99.90
2022-07-30T20:47:56.346Z,99.90
2022-07-30T20:50:30.483Z,99.90
2022-07-30T20:52:59.567Z,99.90
2022-07-30T20:55:27.809Z,99.90
2022-07-30T20:58:12.608Z,99.90
2022-07-30T21:00:49.622Z,99.90
2022-07-30T21:03:21.200Z,99.90
2022-07-30T21:05:51.240Z,99.90
2022-07-30T21:08:21.337Z,99.90
2022-07-30T21:10:55.013Z,99.90
2022-07-30T21:13:26.193Z,99.90
2022-07-30T21:16:01.520Z,99.90
2022-07-30T21:18:30.837Z,99.90
2022-07-30T21:20:58.938Z,99.90
2022-07-30T21:23:29.062Z,99.90
2022-07-30T21:26:00.818Z,99.90
2022-07-30T21:28:35.204Z,99.90
2022-07-30T21:31:04.026Z,99.90
2022-07-30T21:33:36.176Z,99.90
2022-07-30T21:36:04.205Z,99.90
2022-07-30T21:38:34.489Z,99.90
2022-07-30T21:41:02.741Z,99.90
2022-07-30T21:43:40.290Z,99.90
2022-07-30T21:46:10.555Z,99.90
2022-07-30T21:48:39.702Z,99.90
2022-07-30T21:51:09.965Z,99.90
2022-07-30T21:53:45.333Z,99.90
2022-07-30T21:56:14.615Z,99.90
2022-07-30T21:58:45.586Z,99.90
2022-07-30T22:01:21.761Z,99.90
2022-07-30T22:06:41.496Z,99.90
2022-07-30T22:09:19.675Z,99.90
2022-07-30T22:12:01.484Z,99.90
2022-07-30T22:14:31.747Z,99.90
2022-07-30T22:17:00.519Z,99.90
2022-07-30T22:19:32.170Z,99.90
2022-07-30T22:22:03.533Z,99.90
2022-07-30T22:24:48.174Z,99.90
2022-07-30T22:27:16.186Z,99.90
2022-07-30T22:29:48.035Z,99.90
2022-07-30T22:32:16.220Z,99.90
2022-07-30T22:34:44.870Z,99.90
2022-07-30T22:37:15.582Z,99.90
2022-07-30T22:39:51.600Z,99.90
2022-07-30T22:42:24.030Z,99.90
2022-07-30T22:47:50.331Z,99.90
2022-07-30T22:50:21.230Z,99.90
2022-07-30T22:53:01.829Z,99.90
2022-07-30T22:55:42.099Z,99.90
2022-07-30T22:58:12.304Z,99.90
2022-07-30T23:00:41.695Z,99.90
2022-07-30T23:03:09.799Z,99.90
2022-07-30T23:05:37.810Z,99.90
2022-07-30T23:08:08.068Z,99.90
2022-07-30T23:10:36.642Z,99.90
2022-07-30T23:12:30.391Z,99.90
2022-07-30T23:12:33.097Z,99.90
2022-07-30T23:13:04.708Z,99.90
2022-07-30T23:15:32.912Z,99.90
2022-07-30T23:18:02.804Z,99.90
2022-07-30T23:20:30.852Z,99.90
2022-07-30T23:22:59.212Z,99.90
2022-07-30T23:25:27.304Z,99.90
2022-07-30T23:28:06.430Z,99.90
2022-07-30T23:30:34.558Z,99.90
2022-07-30T23:33:03.942Z,99.90
2022-07-30T23:35:31.917Z,99.90
2022-07-30T23:37:59.914Z,99.90
2022-07-30T23:40:28.411Z,99.90
2022-07-30T23:42:57.357Z,99.90
2022-07-30T23:45:25.337Z,99.90
2022-07-30T23:48:01.665Z,99.90
2022-07-30T23:50:33.314Z,99.90
2022-07-30T23:53:01.807Z,99.90
2022-07-30T23:55:30.103Z,99.90
2022-07-30T23:57:58.374Z,99.90
